Time;durP1;ratioP1;P1;durP2;ratioP2;P2;SDS_P1;SDS_P2;PMS_P1;PMS_P2;Temp;Humidity;BMP_temperature;BMP_pressure;BME280_temperature;BME280_humidity;BME280_pressure;Samples;Min_cycle;Max_cycle;Signal;HPM_P1;HPM_P2
2024/01/14 00:00:37;;;;;;;;;;;5.00;99.90;;;;;;5038422;28;20711;-72
2024/01/14 00:03:02;;;;;;;;;;;5.00;99.90;;;;;;5067049;28;19920;-72
2024/01/14 00:05:28;;;;;;;;;;;5.00;99.90;;;;;;5048698;28;20023;-72
2024/01/14 00:07:54;;;;;;;;;;;5.00;99.90;;;;;;5045404;28;19960;-72
2024/01/14 00:10:19;;;;;;;;;;;5.00;99.90;;;;;;5030895;28;19966;-73
2024/01/14 00:12:45;;;;;;;;;;;4.90;99.90;;;;;;5061067;28;19928;-73
2024/01/14 00:15:11;;;;;;;;;;;5.00;99.90;;;;;;4992772;28;1117866;-72
2024/01/14 00:17:36;;;;;;;;;;;4.90;99.90;;;;;;5053945;28;19928;-73
2024/01/14 00:20:02;;;;;;;;;;;4.90;99.90;;;;;;5067275;28;19991;-72
2024/01/14 00:22:28;;;;;;;;;;;4.90;99.90;;;;;;5069458;28;19966;-72
2024/01/14 00:24:54;;;;;;;;;;;4.90;99.90;;;;;;5068589;28;19966;-72
2024/01/14 00:27:19;;;;;;;;;;;4.90;99.90;;;;;;5039365;28;20423;-73
2024/01/14 00:29:45;;;;;;;;;;;4.90;99.90;;;;;;5047561;28;20536;-72
2024/01/14 00:32:11;;;;;;;;;;;4.80;99.90;;;;;;5068555;28;20058;-72
2024/01/14 00:34:38;;;;;;;;;;;4.80;99.90;;;;;;5050195;28;19920;-73
2024/01/14 00:37:04;;;;;;;;;;;4.80;99.90;;;;;;5050710;28;19931;-73
2024/01/14 00:39:29;;;;;;;;;;;4.80;99.90;;;;;;5039086;28;19920;-73
2024/01/14 00:41:55;;;;;;;;;;;4.70;99.90;;;;;;5037036;28;19975;-73
2024/01/14 00:44:20;;;;;;;;;;;4.80;99.90;;;;;;5045187;28;20001;-73
2024/01/14 00:46:46;;;;;;;;;;;4.70;99.90;;;;;;5043295;28;20454;-74
2024/01/14 00:49:11;;;;;;;;;;;4.70;99.90;;;;;;5030096;28;19927;-73
2024/01/14 00:51:37;;;;;;;;;;;4.70;99.90;;;;;;5031037;28;19920;-72
2024/01/14 00:54:03;;;;;;;;;;;4.70;99.90;;;;;;5044000;28;19927;-73
2024/01/14 00:56:28;;;;;;;;;;;4.70;99.90;;;;;;5066526;28;19924;-73
2024/01/14 00:58:54;;;;;;;;;;;4.60;99.90;;;;;;5067215;28;19925;-73
2024/01/14 01:01:19;;;;;;;;;;;4.70;99.90;;;;;;5049423;28;19920;-73
2024/01/14 01:03:45;;;;;;;;;;;4.60;99.90;;;;;;5047675;28;20364;-73
2024/01/14 01:06:11;;;;;;;;;;;4.60;99.90;;;;;;5050132;28;19921;-73
2024/01/14 01:08:37;;;;;;;;;;;4.60;99.90;;;;;;5050776;28;19964;-73
2024/01/14 01:11:02;;;;;;;;;;;4.60;99.90;;;;;;5049745;28;20382;-73
2024/01/14 01:13:28;;;;;;;;;;;4.60;99.90;;;;;;5070988;28;20007;-73
2024/01/14 01:15:53;;;;;;;;;;;4.60;99.90;;;;;;5051659;28;19921;-73
2024/01/14 01:18:19;;;;;;;;;;;4.70;99.90;;;;;;5053925;28;19924;-73
2024/01/14 01:20:45;;;;;;;;;;;4.60;99.90;;;;;;5047181;28;19921;-73
2024/01/14 01:23:11;;;;;;;;;;;4.60;99.90;;;;;;5059111;28;20376;-73
2024/01/14 01:25:36;;;;;;;;;;;4.50;99.90;;;;;;5041927;28;19956;-73
2024/01/14 01:28:02;;;;;;;;;;;4.50;99.90;;;;;;5047120;28;19924;-73
2024/01/14 01:30:27;;;;;;;;;;;4.50;99.90;;;;;;5052841;28;20480;-73
2024/01/14 01:32:53;;;;;;;;;;;4.50;99.90;;;;;;5070687;28;19920;-73
2024/01/14 01:35:19;;;;;;;;;;;4.40;99.90;;;;;;5053849;28;19920;-73
2024/01/14 01:37:45;;;;;;;;;;;4.40;99.90;;;;;;5051717;28;19963;-73
2024/01/14 01:40:11;;;;;;;;;;;4.40;99.90;;;;;;5048341;28;20362;-73
2024/01/14 01:42:37;;;;;;;;;;;4.40;99.90;;;;;;5049719;28;19927;-72
2024/01/14 01:45:02;;;;;;;;;;;4.60;99.90;;;;;;5067095;28;19920;-73
2024/01/14 01:47:28;;;;;;;;;;;4.30;99.90;;;;;;5050961;28;20015;-72
2024/01/14 01:49:54;;;;;;;;;;;4.30;99.90;;;;;;5052001;28;19970;-73
2024/01/14 01:52:20;;;;;;;;;;;4.30;99.90;;;;;;5052811;28;19977;-72
2024/01/14 01:54:47;;;;;;;;;;;4.20;99.90;;;;;;5069392;28;19924;-73
2024/01/14 01:57:12;;;;;;;;;;;4.20;99.90;;;;;;5048693;28;19920;-73
2024/01/14 01:59:39;;;;;;;;;;;4.20;99.90;;;;;;5048736;28;19920;-73
2024/01/14 02:02:05;;;;;;;;;;;4.20;99.90;;;;;;5070039;28;20376;-73
2024/01/14 02:04:31;;;;;;;;;;;4.40;99.90;;;;;;5053094;28;19967;-73
2024/01/14 02:06:57;;;;;;;;;;;4.50;99.90;;;;;;5051791;28;19973;-73
2024/01/14 02:09:23;;;;;;;;;;;4.20;99.90;;;;;;5070813;28;19921;-72
2024/01/14 02:11:49;;;;;;;;;;;4.20;99.90;;;;;;5065228;28;19929;-72
2024/01/14 02:14:14;;;;;;;;;;;4.10;99.90;;;;;;5068515;28;19935;-72
2024/01/14 02:16:40;;;;;;;;;;;4.10;99.90;;;;;;5071070;28;19920;-72
2024/01/14 02:19:05;;;;;;;;;;;4.00;99.90;;;;;;5050698;28;19928;-72
2024/01/14 02:21:40;;;;;;;;;;;4.00;99.90;;;;;;5053014;28;19927;-72
2024/01/14 02:24:13;;;;;;;;;;;4.00;99.90;;;;;;5045523;28;19970;-72
2024/01/14 02:26:39;;;;;;;;;;;4.00;99.90;;;;;;5050255;28;19928;-72
2024/01/14 02:29:06;;;;;;;;;;;3.90;99.90;;;;;;5051710;28;20003;-73
2024/01/14 02:31:32;;;;;;;;;;;3.90;99.90;;;;;;5036621;28;19927;-72
2024/01/14 02:33:58;;;;;;;;;;;4.50;99.90;;;;;;5068447;28;19925;-73
2024/01/14 02:36:24;;;;;;;;;;;3.90;99.90;;;;;;5071022;28;20272;-73
2024/01/14 02:38:49;;;;;;;;;;;3.90;99.90;;;;;;5051161;28;19926;-73
2024/01/14 02:41:15;;;;;;;;;;;3.90;99.90;;;;;;5039945;28;19970;-73
2024/01/14 02:43:40;;;;;;;;;;;3.90;99.90;;;;;;5040907;28;20415;-73
2024/01/14 02:46:06;;;;;;;;;;;4.10;99.90;;;;;;5045401;28;19920;-72
2024/01/14 02:48:32;;;;;;;;;;;3.80;99.90;;;;;;5051562;28;20352;-72
2024/01/14 02:50:57;;;;;;;;;;;3.80;99.90;;;;;;5043075;28;19935;-73
2024/01/14 02:53:23;;;;;;;;;;;3.80;99.90;;;;;;5051835;28;19920;-73
2024/01/14 02:55:48;;;;;;;;;;;3.80;99.90;;;;;;5068621;28;20011;-72
2024/01/14 02:58:14;;;;;;;;;;;3.80;99.90;;;;;;5051795;28;19929;-72
2024/01/14 03:00:39;;;;;;;;;;;4.50;99.90;;;;;;5051951;28;20291;-72
2024/01/14 03:03:05;;;;;;;;;;;4.10;99.90;;;;;;5067337;28;20465;-72
2024/01/14 03:05:30;;;;;;;;;;;4.00;99.90;;;;;;5052663;28;20401;-73
2024/01/14 03:07:56;;;;;;;;;;;3.60;99.90;;;;;;5051668;28;19926;-72
2024/01/14 03:10:22;;;;;;;;;;;3.60;99.90;;;;;;5069917;28;19925;-72
2024/01/14 03:12:48;;;;;;;;;;;3.60;99.90;;;;;;5051463;28;20098;-72
2024/01/14 03:15:13;;;;;;;;;;;3.50;99.90;;;;;;5066600;28;19986;-72
2024/01/14 03:17:39;;;;;;;;;;;3.50;99.90;;;;;;5066067;28;19928;-72
2024/01/14 03:20:05;;;;;;;;;;;3.50;99.90;;;;;;5032005;28;20375;-72
2024/01/14 03:22:30;;;;;;;;;;;3.50;99.90;;;;;;5067107;28;20430;-72
2024/01/14 03:24:56;;;;;;;;;;;3.50;99.90;;;;;;5050609;28;20411;-72
2024/01/14 03:27:21;;;;;;;;;;;3.70;99.90;;;;;;5052510;28;19921;-72
2024/01/14 03:29:47;;;;;;;;;;;3.40;99.90;;;;;;5049305;28;20144;-73
2024/01/14 03:32:12;;;;;;;;;;;3.60;99.90;;;;;;5050606;28;19974;-73
2024/01/14 03:34:38;;;;;;;;;;;3.40;99.90;;;;;;5069399;28;19997;-73
2024/01/14 03:37:03;;;;;;;;;;;3.40;99.90;;;;;;5051126;28;19924;-73
2024/01/14 03:39:29;;;;;;;;;;;3.50;99.90;;;;;;5050770;28;19916;-73
2024/01/14 03:41:54;;;;;;;;;;;3.40;99.90;;;;;;5069414;28;20403;-74
2024/01/14 03:44:20;;;;;;;;;;;3.90;99.90;;;;;;5039033;28;19916;-73
2024/01/14 03:46:46;;;;;;;;;;;3.50;99.90;;;;;;5050607;28;19932;-73
2024/01/14 03:49:11;;;;;;;;;;;3.60;99.90;;;;;;5047203;28;19921;-73
2024/01/14 03:51:37;;;;;;;;;;;3.40;99.90;;;;;;5068571;28;19931;-73
2024/01/14 03:54:03;;;;;;;;;;;3.40;99.90;;;;;;5051064;28;20585;-73
2024/01/14 03:56:28;;;;;;;;;;;3.60;99.90;;;;;;5051698;28;19924;-73
2024/01/14 03:58:54;;;;;;;;;;;3.50;99.90;;;;;;5067493;28;19916;-73
2024/01/14 04:01:19;;;;;;;;;;;3.40;99.90;;;;;;5069297;28;20439;-73
2024/01/14 04:03:45;;;;;;;;;;;3.40;99.90;;;;;;5049625;28;19917;-73
2024/01/14 04:06:11;;;;;;;;;;;3.40;99.90;;;;;;5050571;28;19920;-73
2024/01/14 04:08:36;;;;;;;;;;;3.50;99.90;;;;;;5051007;28;19920;-73
2024/01/14 04:11:02;;;;;;;;;;;5.10;99.90;;;;;;5068601;28;19920;-73
2024/01/14 04:13:27;;;;;;;;;;;3.90;99.90;;;;;;5030925;28;19970;-72
2024/01/14 04:15:55;;;;;;;;;;;3.50;99.90;;;;;;5046245;28;19952;-72
2024/01/14 04:18:21;;;;;;;;;;;3.50;99.90;;;;;;5038013;28;19944;-72
2024/01/14 04:20:46;;;;;;;;;;;3.90;99.90;;;;;;5030666;28;20380;-73
2024/01/14 04:23:12;;;;;;;;;;;3.50;99.90;;;;;;5031345;28;20014;-72
2024/01/14 04:25:37;;;;;;;;;;;3.50;99.90;;;;;;5048485;28;19979;-72
2024/01/14 04:28:03;;;;;;;;;;;3.60;99.90;;;;;;5030169;28;20353;-74
2024/01/14 04:30:28;;;;;;;;;;;3.40;99.90;;;;;;5048747;28;19924;-74
2024/01/14 04:32:54;;;;;;;;;;;3.60;99.90;;;;;;5040074;28;20010;-72
2024/01/14 04:35:19;;;;;;;;;;;3.60;99.90;;;;;;5051016;28;19946;-71
2024/01/14 04:37:45;;;;;;;;;;;3.70;99.90;;;;;;5050378;28;20013;-71
2024/01/14 04:40:11;;;;;;;;;;;3.60;99.90;;;;;;5033569;28;19921;-72
2024/01/14 04:42:36;;;;;;;;;;;3.60;99.90;;;;;;5081807;28;19920;-71
2024/01/14 04:45:02;;;;;;;;;;;4.40;99.90;;;;;;5049793;28;20390;-71
2024/01/14 04:47:28;;;;;;;;;;;3.50;99.90;;;;;;5034164;28;19927;-71
2024/01/14 04:49:53;;;;;;;;;;;3.50;99.90;;;;;;5048586;28;19920;-71
2024/01/14 04:52:19;;;;;;;;;;;3.50;99.90;;;;;;5072815;28;19920;-71
2024/01/14 04:54:44;;;;;;;;;;;3.60;99.90;;;;;;5053703;28;19982;-71
2024/01/14 04:57:10;;;;;;;;;;;3.60;99.90;;;;;;5054992;28;20452;-71
2024/01/14 04:59:35;;;;;;;;;;;3.60;99.90;;;;;;5053791;28;20003;-72
2024/01/14 05:02:01;;;;;;;;;;;3.60;99.90;;;;;;5044704;28;19955;-73
2024/01/14 05:04:26;;;;;;;;;;;3.60;99.90;;;;;;5070069;28;20632;-72
2024/01/14 05:06:53;;;;;;;;;;;4.70;99.90;;;;;;5071038;28;19920;-72
2024/01/14 05:09:21;;;;;;;;;;;3.60;99.90;;;;;;5071725;28;20406;-73
2024/01/14 05:11:47;;;;;;;;;;;3.60;99.90;;;;;;5048575;28;19928;-73
2024/01/14 05:14:12;;;;;;;;;;;3.60;99.90;;;;;;5053051;28;19935;-73
2024/01/14 05:16:38;;;;;;;;;;;3.50;99.90;;;;;;5052970;28;19924;-73
2024/01/14 05:19:03;;;;;;;;;;;3.50;99.90;;;;;;5041231;28;20360;-72
2024/01/14 05:21:29;;;;;;;;;;;3.50;99.90;;;;;;5054005;28;20015;-72
2024/01/14 05:23:54;;;;;;;;;;;3.60;99.90;;;;;;5052479;28;19920;-73
2024/01/14 05:26:20;;;;;;;;;;;3.70;99.90;;;;;;5070563;28;19927;-72
2024/01/14 05:28:45;;;;;;;;;;;3.40;99.90;;;;;;5052630;28;19924;-73
2024/01/14 05:31:11;;;;;;;;;;;3.30;99.90;;;;;;5052272;28;19924;-72
2024/01/14 05:33:36;;;;;;;;;;;3.30;99.90;;;;;;5067592;28;19924;-72
2024/01/14 05:36:02;;;;;;;;;;;3.30;99.90;;;;;;5032749;28;19921;-72
2024/01/14 05:38:28;;;;;;;;;;;3.30;99.90;;;;;;5052097;28;20364;-72
2024/01/14 05:40:53;;;;;;;;;;;3.20;99.90;;;;;;5051448;28;19975;-72
2024/01/14 05:43:19;;;;;;;;;;;3.20;99.90;;;;;;5042221;28;19924;-72
2024/01/14 05:45:45;;;;;;;;;;;4.50;99.90;;;;;;5053211;28;19929;-72
2024/01/14 05:48:12;;;;;;;;;;;3.20;99.90;;;;;;5033320;28;19928;-72
2024/01/14 05:50:37;;;;;;;;;;;3.60;99.90;;;;;;5063181;28;19924;-73
2024/01/14 05:53:03;;;;;;;;;;;3.70;99.90;;;;;;5053279;28;20365;-72
2024/01/14 05:55:28;;;;;;;;;;;3.10;99.90;;;;;;5053931;28;19924;-72
2024/01/14 05:57:54;;;;;;;;;;;3.20;99.90;;;;;;5069320;28;20441;-72
2024/01/14 06:00:22;;;;;;;;;;;3.10;99.90;;;;;;5069148;28;19920;-72
2024/01/14 06:02:48;;;;;;;;;;;3.00;99.90;;;;;;5063026;28;20088;-72
2024/01/14 06:05:15;;;;;;;;;;;3.60;99.90;;;;;;5050347;28;19927;-72
2024/01/14 06:07:40;;;;;;;;;;;3.00;99.90;;;;;;5052798;28;19924;-72
2024/01/14 06:10:06;;;;;;;;;;;3.10;99.90;;;;;;5070009;28;20050;-72
2024/01/14 06:12:31;;;;;;;;;;;3.10;99.90;;;;;;5070164;28;20385;-72
2024/01/14 06:14:57;;;;;;;;;;;3.10;99.90;;;;;;5041058;28;19920;-72
2024/01/14 06:17:23;;;;;;;;;;;3.10;99.90;;;;;;5044447;28;19921;-72
2024/01/14 06:19:48;;;;;;;;;;;3.10;99.90;;;;;;5068913;28;19920;-72
2024/01/14 06:22:14;;;;;;;;;;;3.10;99.90;;;;;;5071005;28;19924;-73
2024/01/14 06:24:39;;;;;;;;;;;3.20;99.90;;;;;;5046092;28;19931;-72
2024/01/14 06:27:05;;;;;;;;;;;3.90;99.90;;;;;;5031924;28;20269;-72
2024/01/14 06:29:30;;;;;;;;;;;3.20;99.90;;;;;;5042660;28;19920;-72
2024/01/14 06:31:58;;;;;;;;;;;3.20;99.90;;;;;;5048887;28;20050;-72
2024/01/14 06:34:23;;;;;;;;;;;4.10;99.90;;;;;;5052140;28;19921;-72
2024/01/14 06:36:49;;;;;;;;;;;3.20;99.90;;;;;;5051518;28;19927;-72
2024/01/14 06:39:15;;;;;;;;;;;3.50;99.90;;;;;;5063453;28;19916;-73
2024/01/14 06:41:40;;;;;;;;;;;3.20;99.90;;;;;;5066076;28;19920;-73
2024/01/14 06:44:06;;;;;;;;;;;3.20;99.90;;;;;;5035288;28;19927;-73
2024/01/14 06:46:31;;;;;;;;;;;3.20;99.90;;;;;;5042061;28;20027;-72
2024/01/14 06:48:57;;;;;;;;;;;3.30;99.90;;;;;;5051926;28;19986;-72
2024/01/14 06:51:22;;;;;;;;;;;3.20;99.90;;;;;;5048740;28;20364;-72
2024/01/14 06:53:48;;;;;;;;;;;3.50;99.90;;;;;;5051755;28;19924;-72
2024/01/14 06:56:16;;;;;;;;;;;3.20;99.90;;;;;;5052805;28;19920;-73
2024/01/14 06:58:41;;;;;;;;;;;3.20;99.90;;;;;;5051075;28;19921;-72
2024/01/14 07:01:07;;;;;;;;;;;4.60;99.90;;;;;;5049957;28;19924;-72
2024/01/14 07:03:33;;;;;;;;;;;3.10;99.90;;;;;;5049793;28;19928;-72
2024/01/14 07:05:59;;;;;;;;;;;3.10;99.90;;;;;;5067578;28;20367;-72
2024/01/14 07:08:25;;;;;;;;;;;3.00;99.90;;;;;;5068649;28;19920;-72
2024/01/14 07:10:50;;;;;;;;;;;3.10;99.90;;;;;;5051251;28;19921;-72
2024/01/14 07:13:17;;;;;;;;;;;3.10;99.90;;;;;;5050123;28;19932;-73
2024/01/14 07:15:42;;;;;;;;;;;3.10;99.90;;;;;;5042421;28;20307;-72
2024/01/14 07:18:08;;;;;;;;;;;3.20;99.90;;;;;;5050990;28;20217;-72
2024/01/14 07:20:33;;;;;;;;;;;3.10;99.90;;;;;;5051105;28;20295;-72
2024/01/14 07:22:59;;;;;;;;;;;3.10;99.90;;;;;;5049855;28;19932;-72
2024/01/14 07:25:25;;;;;;;;;;;3.10;99.90;;;;;;5049925;28;19921;-72
2024/01/14 07:27:51;;;;;;;;;;;3.20;99.90;;;;;;5048907;28;19959;-72
2024/01/14 07:30:18;;;;;;;;;;;3.10;99.90;;;;;;5040818;28;19959;-72
2024/01/14 07:32:45;;;;;;;;;;;3.10;99.90;;;;;;5050073;28;19924;-72
2024/01/14 07:35:11;;;;;;;;;;;3.20;99.90;;;;;;5067366;28;19920;-72
2024/01/14 07:37:37;;;;;;;;;;;3.20;99.90;;;;;;5033444;28;19924;-73
2024/01/14 07:40:02;;;;;;;;;;;3.20;99.90;;;;;;5046681;28;19931;-73
2024/01/14 07:42:28;;;;;;;;;;;3.20;99.90;;;;;;5051334;28;19924;-73
2024/01/14 07:44:53;;;;;;;;;;;3.20;99.90;;;;;;5066757;28;19985;-75
2024/01/14 07:47:22;;;;;;;;;;;3.30;99.90;;;;;;5058744;28;19955;-75
2024/01/14 07:49:49;;;;;;;;;;;3.60;99.90;;;;;;5067463;28;19920;-74
2024/01/14 07:52:18;;;;;;;;;;;3.30;99.90;;;;;;5048110;28;20018;-75
2024/01/14 07:54:43;;;;;;;;;;;3.20;99.90;;;;;;5050502;28;19920;-74
2024/01/14 07:57:09;;;;;;;;;;;3.20;99.90;;;;;;5068618;28;19920;-75
2024/01/14 07:59:35;;;;;;;;;;;3.20;99.90;;;;;;5032909;28;19921;-75
2024/01/14 08:02:01;;;;;;;;;;;3.10;99.90;;;;;;5031000;28;19931;-75
2024/01/14 08:04:26;;;;;;;;;;;3.20;99.90;;;;;;5036884;28;19931;-75
2024/01/14 08:06:52;;;;;;;;;;;4.00;99.90;;;;;;5041732;28;19926;-74
2024/01/14 08:09:17;;;;;;;;;;;3.10;99.90;;;;;;5069145;28;19939;-73
2024/01/14 08:11:43;;;;;;;;;;;3.10;99.90;;;;;;5068351;28;19931;-73
2024/01/14 08:14:08;;;;;;;;;;;3.10;99.90;;;;;;5039557;28;19928;-72
2024/01/14 08:16:34;;;;;;;;;;;3.60;99.90;;;;;;5068382;28;19944;-73
2024/01/14 08:18:59;;;;;;;;;;;3.10;99.90;;;;;;5048752;28;19946;-74
2024/01/14 08:21:25;;;;;;;;;;;3.10;99.90;;;;;;5050073;28;19928;-74
2024/01/14 08:23:50;;;;;;;;;;;3.00;99.90;;;;;;5052374;28;20540;-74
2024/01/14 08:26:16;;;;;;;;;;;3.10;99.90;;;;;;5072632;28;19921;-73
2024/01/14 08:28:41;;;;;;;;;;;3.00;99.90;;;;;;5042065;28;20351;-73
2024/01/14 08:31:07;;;;;;;;;;;3.10;99.90;;;;;;5046684;28;19967;-73
2024/01/14 08:33:32;;;;;;;;;;;3.10;99.90;;;;;;5054010;28;19962;-73
2024/01/14 08:35:58;;;;;;;;;;;3.10;99.90;;;;;;5071409;28;19935;-73
2024/01/14 08:38:24;;;;;;;;;;;3.10;99.90;;;;;;5073377;28;20338;-73
2024/01/14 08:40:51;;;;;;;;;;;3.10;99.90;;;;;;5053863;28;20045;-73
2024/01/14 08:43:16;;;;;;;;;;;3.10;99.90;;;;;;5073417;28;19921;-73
2024/01/14 08:45:42;;;;;;;;;;;3.10;99.90;;;;;;5066781;28;19921;-73
2024/01/14 08:48:07;;;;;;;;;;;3.10;99.90;;;;;;5069801;28;19924;-73
2024/01/14 08:50:33;;;;;;;;;;;3.10;99.90;;;;;;5072556;28;20398;-74
2024/01/14 08:52:58;;;;;;;;;;;3.30;99.90;;;;;;5046402;28;19920;-76
2024/01/14 08:55:24;;;;;;;;;;;3.10;99.90;;;;;;5045651;28;19921;-77
2024/01/14 08:57:49;;;;;;;;;;;3.20;99.90;;;;;;5047036;28;19931;-76
2024/01/14 09:00:15;;;;;;;;;;;3.10;99.90;;;;;;5052951;28;19924;-77
2024/01/14 09:02:41;;;;;;;;;;;3.10;99.90;;;;;;5052360;28;19921;-76
2024/01/14 09:05:06;;;;;;;;;;;3.50;99.90;;;;;;5048253;28;20338;-76
2024/01/14 09:07:33;;;;;;;;;;;3.20;99.90;;;;;;5050555;28;20280;-76
2024/01/14 09:09:59;;;;;;;;;;;3.50;99.90;;;;;;5069459;28;20368;-75
2024/01/14 09:12:24;;;;;;;;;;;3.20;99.90;;;;;;5052272;28;19927;-76
2024/01/14 09:14:50;;;;;;;;;;;3.20;99.90;;;;;;5050792;28;19928;-75
2024/01/14 09:17:16;;;;;;;;;;;3.20;99.90;;;;;;5053211;28;20017;-76
2024/01/14 09:19:41;;;;;;;;;;;3.50;99.90;;;;;;5054393;28;19928;-76
2024/01/14 09:22:07;;;;;;;;;;;3.30;99.90;;;;;;5045837;28;19928;-76
2024/01/14 09:24:32;;;;;;;;;;;4.90;99.90;;;;;;5052018;28;19917;-76
2024/01/14 09:26:58;;;;;;;;;;;3.40;99.90;;;;;;5037234;28;20022;-76
2024/01/14 09:29:24;;;;;;;;;;;4.80;99.90;;;;;;5069956;28;19927;-76
2024/01/14 09:31:49;;;;;;;;;;;3.50;99.90;;;;;;5069560;28;19920;-75
2024/01/14 09:34:15;;;;;;;;;;;3.50;99.90;;;;;;5066288;28;20378;-78
2024/01/14 09:36:41;;;;;;;;;;;3.50;99.90;;;;;;5045849;28;19917;-77
2024/01/14 09:39:10;;;;;;;;;;;3.60;99.90;;;;;;5051845;28;19969;-75
2024/01/14 09:41:44;;;;;;;;;;;3.60;99.90;;;;;;5052690;28;19926;-75
2024/01/14 09:44:14;;;;;;;;;;;3.60;99.90;;;;;;5051993;28;20360;-75
2024/01/14 09:46:40;;;;;;;;;;;3.70;99.90;;;;;;5053473;28;19946;-77
2024/01/14 09:49:06;;;;;;;;;;;5.30;99.90;;;;;;5053388;28;19916;-76
2024/01/14 09:51:32;;;;;;;;;;;3.80;99.90;;;;;;5066099;28;19935;-76
2024/01/14 09:54:00;;;;;;;;;;;3.80;99.90;;;;;;5057559;28;19924;-77
2024/01/14 09:56:25;;;;;;;;;;;4.90;99.90;;;;;;5032698;28;19920;-77
2024/01/14 09:58:52;;;;;;;;;;;3.90;99.90;;;;;;5036691;28;20280;-77
2024/01/14 10:01:20;;;;;;;;;;;3.90;99.90;;;;;;5053354;28;19924;-77
2024/01/14 10:03:46;;;;;;;;;;;4.00;99.90;;;;;;5050966;28;19934;-76
2024/01/14 10:06:12;;;;;;;;;;;4.00;99.90;;;;;;5050103;28;20294;-76
2024/01/14 10:08:38;;;;;;;;;;;4.00;99.90;;;;;;5040007;28;20160;-76
2024/01/14 10:11:04;;;;;;;;;;;4.00;99.90;;;;;;5068856;28;19934;-76
2024/01/14 10:13:31;;;;;;;;;;;4.00;99.90;;;;;;5069394;28;19920;-75
2024/01/14 10:15:57;;;;;;;;;;;4.10;99.90;;;;;;5049698;28;20384;-76
2024/01/14 10:18:23;;;;;;;;;;;4.10;99.90;;;;;;5051086;28;19927;-76
2024/01/14 10:20:49;;;;;;;;;;;4.20;99.90;;;;;;5038199;28;19917;-76
2024/01/14 10:23:16;;;;;;;;;;;4.50;99.90;;;;;;5066023;28;19943;-77
2024/01/14 10:25:41;;;;;;;;;;;4.50;99.90;;;;;;5068872;28;19960;-78
2024/01/14 10:28:07;;;;;;;;;;;4.50;99.90;;;;;;5066285;28;20037;-79
2024/01/14 10:30:32;;;;;;;;;;;4.60;99.90;;;;;;5070431;28;20445;-78
2024/01/14 10:32:58;;;;;;;;;;;4.80;99.90;;;;;;5050405;28;19969;-77
2024/01/14 10:35:24;;;;;;;;;;;4.90;99.90;;;;;;5053539;28;20256;-79
2024/01/14 10:37:50;;;;;;;;;;;5.10;99.90;;;;;;5045580;28;19931;-79
2024/01/14 10:40:16;;;;;;;;;;;6.70;99.90;;;;;;5068483;28;19920;-78
2024/01/14 10:42:41;;;;;;;;;;;5.40;99.90;;;;;;5068269;28;19921;-78
2024/01/14 10:45:08;;;;;;;;;;;5.80;99.90;;;;;;5047910;28;19920;-79
2024/01/14 10:47:33;;;;;;;;;;;6.00;99.90;;;;;;5047422;28;19947;-78
2024/01/14 10:50:00;;;;;;;;;;;6.40;99.90;;;;;;5050625;28;19920;-79
2024/01/14 10:52:26;;;;;;;;;;;7.10;99.90;;;;;;5051529;28;20023;-79
2024/01/14 10:54:55;;;;;;;;;;;7.40;99.90;;;;;;5048143;28;20161;-79
2024/01/14 10:57:32;;;;;;;;;;;8.20;99.90;;;;;;5050504;28;20457;-79
2024/01/14 11:00:04;;;;;;;;;;;8.70;99.90;;;;;;5067484;28;19928;-79
2024/01/14 11:02:31;;;;;;;;;;;9.00;99.90;;;;;;5071798;28;19956;-79
2024/01/14 11:04:57;;;;;;;;;;;8.80;99.90;;;;;;5068799;28;19974;-78
2024/01/14 11:07:23;;;;;;;;;;;8.40;99.90;;;;;;5042107;28;20091;-79
2024/01/14 11:09:50;;;;;;;;;;;8.00;99.90;;;;;;5031112;28;19960;-76
2024/01/14 11:12:24;;;;;;;;;;;7.50;99.90;;;;;;5044708;28;19974;-81
2024/01/14 11:14:49;;;;;;;;;;;7.10;99.90;;;;;;5065763;28;19920;-78
2024/01/14 11:17:22;;;;;;;;;;;6.80;99.90;;;;;;5045356;28;19990;-79
2024/01/14 11:19:50;;;;;;;;;;;6.80;99.90;;;;;;5068818;28;19978;-79
2024/01/14 11:22:19;;;;;;;;;;;7.80;99.90;;;;;;5048002;28;19968;-78
2024/01/14 11:24:46;;;;;;;;;;;6.60;99.90;;;;;;5051644;28;19924;-78
2024/01/14 11:27:12;;;;;;;;;;;6.40;99.90;;;;;;5046502;28;19916;-78
2024/01/14 11:29:39;;;;;;;;;;;6.40;99.90;;;;;;5064640;28;20039;-78
2024/01/14 11:32:14;;;;;;;;;;;6.00;99.90;;;;;;5067611;28;19924;-78
2024/01/14 11:34:52;;;;;;;;;;;5.90;99.90;;;;;;5068181;28;19924;-79
2024/01/14 11:37:29;;;;;;;;;;;5.80;99.90;;;;;;5068332;28;19920;-79
2024/01/14 11:40:08;;;;;;;;;;;5.80;99.90;;;;;;5050461;28;19927;-78
2024/01/14 11:42:38;;;;;;;;;;;5.90;99.90;;;;;;5061098;28;19935;-77
2024/01/14 11:45:05;;;;;;;;;;;6.00;99.90;;;;;;5044583;28;20417;-77
2024/01/14 11:47:37;;;;;;;;;;;6.10;99.90;;;;;;5048748;28;20324;-78
2024/01/14 11:50:03;;;;;;;;;;;6.20;99.90;;;;;;5050275;28;19928;-77
2024/01/14 11:52:29;;;;;;;;;;;6.20;99.90;;;;;;5050956;28;19974;-77
2024/01/14 11:54:55;;;;;;;;;;;6.10;99.90;;;;;;5063455;28;20346;-78
2024/01/14 11:57:21;;;;;;;;;;;6.10;99.90;;;;;;5058609;28;20375;-77
2024/01/14 11:59:48;;;;;;;;;;;6.30;99.90;;;;;;5080864;28;19916;-78
2024/01/14 12:02:15;;;;;;;;;;;6.00;99.90;;;;;;5069156;28;19928;-77
2024/01/14 12:04:40;;;;;;;;;;;6.10;99.90;;;;;;5050333;28;20382;-77
2024/01/14 12:07:06;;;;;;;;;;;6.60;99.90;;;;;;5050591;28;19920;-78
2024/01/14 12:09:31;;;;;;;;;;;7.20;99.90;;;;;;5046190;28;20415;-78
2024/01/14 12:11:57;;;;;;;;;;;7.40;99.90;;;;;;5037304;28;19937;-78
2024/01/14 12:14:22;;;;;;;;;;;7.50;99.90;;;;;;5066758;28;20039;-77
2024/01/14 12:16:48;;;;;;;;;;;7.70;99.90;;;;;;5068881;28;19959;-78
2024/01/14 12:19:16;;;;;;;;;;;8.40;99.90;;;;;;5049072;28;19920;-79
2024/01/14 12:21:42;;;;;;;;;;;9.20;99.90;;;;;;5043978;28;19920;-78
2024/01/14 12:24:08;;;;;;;;;;;9.50;99.90;;;;;;5045592;28;20403;-77
2024/01/14 12:26:33;;;;;;;;;;;9.80;99.90;;;;;;5062666;28;19924;-77
2024/01/14 12:28:59;;;;;;;;;;;9.60;99.90;;;;;;5038450;28;19920;-78
2024/01/14 12:31:25;;;;;;;;;;;9.40;99.90;;;;;;5067134;28;19960;-77
2024/01/14 12:33:51;;;;;;;;;;;10.00;99.90;;;;;;5050221;28;20363;-77
2024/01/14 12:36:17;;;;;;;;;;;9.90;99.90;;;;;;5038363;28;19935;-78
2024/01/14 12:38:43;;;;;;;;;;;10.00;99.90;;;;;;5041072;28;19920;-77
2024/01/14 12:41:08;;;;;;;;;;;9.80;99.90;;;;;;5049820;28;19931;-77
2024/01/14 12:43:34;;;;;;;;;;;9.60;99.90;;;;;;5048611;28;19959;-77
2024/01/14 12:46:02;;;;;;;;;;;9.40;99.90;;;;;;5041387;28;20414;-76
2024/01/14 12:48:27;;;;;;;;;;;9.60;99.90;;;;;;5040421;28;19924;-75
2024/01/14 12:51:00;;;;;;;;;;;9.50;99.90;;;;;;5047237;28;20380;-76
2024/01/14 12:53:29;;;;;;;;;;;9.80;99.90;;;;;;5046009;28;19921;-76
2024/01/14 12:56:11;;;;;;;;;;;10.20;99.90;;;;;;5039004;28;19924;-76
2024/01/14 12:58:38;;;;;;;;;;;10.10;99.90;;;;;;5046658;28;20016;-77
2024/01/14 13:01:04;;;;;;;;;;;9.90;99.90;;;;;;5078911;28;20427;-78
2024/01/14 13:03:29;;;;;;;;;;;9.20;99.90;;;;;;5048369;28;19959;-76
2024/01/14 13:05:55;;;;;;;;;;;8.80;99.90;;;;;;5044832;28;19968;-75
2024/01/14 13:08:20;;;;;;;;;;;8.40;99.90;;;;;;5051186;28;19928;-74
2024/01/14 13:10:46;;;;;;;;;;;8.10;99.90;;;;;;5044805;28;19928;-76
2024/01/14 13:13:11;;;;;;;;;;;8.10;99.90;;;;;;5051614;28;20007;-77
2024/01/14 13:15:37;;;;;;;;;;;7.40;99.90;;;;;;5052959;28;19928;-76
2024/01/14 13:18:03;;;;;;;;;;;7.20;99.90;;;;;;5051969;28;19985;-76
2024/01/14 13:20:29;;;;;;;;;;;6.90;99.90;;;;;;5052423;28;20473;-76
2024/01/14 13:22:54;;;;;;;;;;;6.70;99.90;;;;;;5051219;28;19932;-76
2024/01/14 13:25:20;;;;;;;;;;;6.40;99.90;;;;;;5052574;28;19928;-75
2024/01/14 13:27:45;;;;;;;;;;;6.40;99.90;;;;;;5045809;28;20380;-75
2024/01/14 13:30:11;;;;;;;;;;;6.00;99.90;;;;;;5052126;28;19931;-74
2024/01/14 13:32:38;;;;;;;;;;;5.90;99.90;;;;;;5052470;28;19931;-75
2024/01/14 13:35:05;;;;;;;;;;;5.80;99.90;;;;;;5052906;28;20066;-74
2024/01/14 13:37:31;;;;;;;;;;;5.70;99.90;;;;;;5070587;28;20454;-75
2024/01/14 13:39:57;;;;;;;;;;;5.70;99.90;;;;;;5040827;28;19935;-75
2024/01/14 13:42:22;;;;;;;;;;;5.70;99.90;;;;;;5037587;28;20095;-74
2024/01/14 13:44:49;;;;;;;;;;;5.70;99.90;;;;;;5052549;28;19924;-74
2024/01/14 13:47:15;;;;;;;;;;;6.60;99.90;;;;;;5049878;28;19920;-75
2024/01/14 13:49:40;;;;;;;;;;;5.90;99.90;;;;;;5064502;28;19920;-74
2024/01/14 13:52:06;;;;;;;;;;;5.80;99.90;;;;;;5052636;28;19975;-75
2024/01/14 13:54:31;;;;;;;;;;;5.40;99.90;;;;;;5047778;28;19924;-75
2024/01/14 13:57:00;;;;;;;;;;;5.30;99.90;;;;;;5041237;28;19924;-74
2024/01/14 13:59:29;;;;;;;;;;;6.10;99.90;;;;;;5050044;28;20410;-75
2024/01/14 14:01:54;;;;;;;;;;;5.30;99.90;;;;;;5051977;28;20334;-74
2024/01/14 14:04:20;;;;;;;;;;;5.40;99.90;;;;;;5043576;28;19917;-76
2024/01/14 14:06:45;;;;;;;;;;;5.50;99.90;;;;;;5033570;28;19920;-75
2024/01/14 14:09:11;;;;;;;;;;;5.50;99.90;;;;;;5046244;28;19920;-76
2024/01/14 14:11:38;;;;;;;;;;;5.50;99.90;;;;;;5041292;28;20311;-76
2024/01/14 14:14:03;;;;;;;;;;;5.60;99.90;;;;;;5048042;28;19977;-75
2024/01/14 14:16:29;;;;;;;;;;;5.60;99.90;;;;;;5046022;28;19920;-76
2024/01/14 14:18:55;;;;;;;;;;;5.60;99.90;;;;;;5056894;28;19920;-75
2024/01/14 14:21:20;;;;;;;;;;;5.50;99.90;;;;;;5050945;28;19927;-75